sensor_id;sensor_type;location;lat;lon;timestamp;temperature;humidity
53962;DHT22;39868;53.398;6.564;2023-09-18T00:00:12;19.50;82.40
53962;DHT22;39868;53.398;6.564;2023-09-18T00:02:40;19.50;82.40
53962;DHT22;39868;53.398;6.564;2023-09-18T00:05:07;19.40;82.40
53962;DHT22;39868;53.398;6.564;2023-09-18T00:07:35;19.40;82.40
53962;DHT22;39868;53.398;6.564;2023-09-18T00:10:02;19.40;82.40
53962;DHT22;39868;53.398;6.564;2023-09-18T00:12:29;19.40;82.50
53962;DHT22;39868;53.398;6.564;2023-09-18T00:14:57;19.30;82.50
53962;DHT22;39868;53.398;6.564;2023-09-18T00:17:24;19.30;82.50
53962;DHT22;39868;53.398;6.564;2023-09-18T00:19:51;19.30;82.60
53962;DHT22;39868;53.398;6.564;2023-09-18T00:22:19;19.30;82.60
53962;DHT22;39868;53.398;6.564;2023-09-18T00:24:46;19.30;82.60
53962;DHT22;39868;53.398;6.564;2023-09-18T00:27:13;19.30;82.70
53962;DHT22;39868;53.398;6.564;2023-09-18T00:29:40;19.20;82.70
53962;DHT22;39868;53.398;6.564;2023-09-18T00:32:07;19.20;82.70
53962;DHT22;39868;53.398;6.564;2023-09-18T00:34:35;19.20;82.80
53962;DHT22;39868;53.398;6.564;2023-09-18T00:37:02;19.20;82.80
53962;DHT22;39868;53.398;6.564;2023-09-18T00:39:29;19.20;82.90
53962;DHT22;39868;53.398;6.564;2023-09-18T00:41:58;19.20;83.00
53962;DHT22;39868;53.398;6.564;2023-09-18T00:44:25;19.20;83.00
53962;DHT22;39868;53.398;6.564;2023-09-18T00:46:55;19.20;83.20
53962;DHT22;39868;53.398;6.564;2023-09-18T00:49:23;19.20;83.30
53962;DHT22;39868;53.398;6.564;2023-09-18T00:51:50;19.30;83.30
53962;DHT22;39868;53.398;6.564;2023-09-18T00:54:18;19.30;83.40
53962;DHT22;39868;53.398;6.564;2023-09-18T00:56:46;19.40;83.50
53962;DHT22;39868;53.398;6.564;2023-09-18T00:59:15;19.40;83.60
53962;DHT22;39868;53.398;6.564;2023-09-18T01:01:42;19.40;83.60
53962;DHT22;39868;53.398;6.564;2023-09-18T01:04:10;19.40;83.60
53962;DHT22;39868;53.398;6.564;2023-09-18T01:06:37;19.50;83.70
53962;DHT22;39868;53.398;6.564;2023-09-18T01:09:04;19.50;83.70
53962;DHT22;39868;53.398;6.564;2023-09-18T01:11:43;19.60;83.80
53962;DHT22;39868;53.398;6.564;2023-09-18T01:14:18;19.60;83.80
53962;DHT22;39868;53.398;6.564;2023-09-18T01:16:58;19.60;83.80
53962;DHT22;39868;53.398;6.564;2023-09-18T01:19:42;19.60;83.80
53962;DHT22;39868;53.398;6.564;2023-09-18T01:22:17;19.70;83.90
53962;DHT22;39868;53.398;6.564;2023-09-18T01:24:45;19.70;83.90
53962;DHT22;39868;53.398;6.564;2023-09-18T01:27:14;19.70;83.80
53962;DHT22;39868;53.398;6.564;2023-09-18T01:29:47;19.70;83.80
53962;DHT22;39868;53.398;6.564;2023-09-18T01:32:15;19.80;83.90
53962;DHT22;39868;53.398;6.564;2023-09-18T01:34:44;19.80;83.90
53962;DHT22;39868;53.398;6.564;2023-09-18T01:37:12;19.80;83.90
53962;DHT22;39868;53.398;6.564;2023-09-18T01:39:39;19.80;83.90
53962;DHT22;39868;53.398;6.564;2023-09-18T01:42:08;19.80;83.90
53962;DHT22;39868;53.398;6.564;2023-09-18T01:44:38;19.80;83.90
53962;DHT22;39868;53.398;6.564;2023-09-18T01:47:09;19.80;83.80
53962;DHT22;39868;53.398;6.564;2023-09-18T01:49:39;19.80;83.90
53962;DHT22;39868;53.398;6.564;2023-09-18T01:52:07;19.80;83.90
53962;DHT22;39868;53.398;6.564;2023-09-18T01:54:35;19.80;83.90
53962;DHT22;39868;53.398;6.564;2023-09-18T01:57:03;19.80;83.90
53962;DHT22;39868;53.398;6.564;2023-09-18T01:59:30;19.80;83.90
53962;DHT22;39868;53.398;6.564;2023-09-18T02:01:58;19.80;83.90
53962;DHT22;39868;53.398;6.564;2023-09-18T02:04:26;19.80;83.90
53962;DHT22;39868;53.398;6.564;2023-09-18T02:07:14;19.80;83.90
53962;DHT22;39868;53.398;6.564;2023-09-18T02:09:42;19.80;83.90
53962;DHT22;39868;53.398;6.564;2023-09-18T02:12:09;19.80;84.00
53962;DHT22;39868;53.398;6.564;2023-09-18T02:14:36;19.80;84.00
53962;DHT22;39868;53.398;6.564;2023-09-18T02:17:04;19.80;84.00
53962;DHT22;39868;53.398;6.564;2023-09-18T02:19:32;19.80;84.00
53962;DHT22;39868;53.398;6.564;2023-09-18T02:22:00;19.90;84.10
53962;DHT22;39868;53.398;6.564;2023-09-18T02:24:27;19.90;84.10
53962;DHT22;39868;53.398;6.564;2023-09-18T02:26:54;19.90;84.20
53962;DHT22;39868;53.398;6.564;2023-09-18T02:29:22;19.90;84.20
53962;DHT22;39868;53.398;6.564;2023-09-18T02:31:50;19.90;84.30
53962;DHT22;39868;53.398;6.564;2023-09-18T02:34:17;19.90;84.30
53962;DHT22;39868;53.398;6.564;2023-09-18T02:36:46;20.00;84.50
53962;DHT22;39868;53.398;6.564;2023-09-18T02:39:15;20.00;84.50
53962;DHT22;39868;53.398;6.564;2023-09-18T02:41:42;20.00;84.60
53962;DHT22;39868;53.398;6.564;2023-09-18T02:44:09;20.10;84.70
53962;DHT22;39868;53.398;6.564;2023-09-18T02:46:37;20.10;84.70
53962;DHT22;39868;53.398;6.564;2023-09-18T02:49:04;20.10;84.70
53962;DHT22;39868;53.398;6.564;2023-09-18T02:51:32;20.10;84.70
53962;DHT22;39868;53.398;6.564;2023-09-18T02:53:59;20.10;84.70
53962;DHT22;39868;53.398;6.564;2023-09-18T02:56:26;20.20;84.70
53962;DHT22;39868;53.398;6.564;2023-09-18T02:58:54;20.20;84.70
53962;DHT22;39868;53.398;6.564;2023-09-18T03:01:21;20.20;84.70
53962;DHT22;39868;53.398;6.564;2023-09-18T03:03:49;20.20;84.70
53962;DHT22;39868;53.398;6.564;2023-09-18T03:06:16;20.30;84.80
53962;DHT22;39868;53.398;6.564;2023-09-18T03:08:43;20.30;84.70
53962;DHT22;39868;53.398;6.564;2023-09-18T03:11:11;20.30;84.70
53962;DHT22;39868;53.398;6.564;2023-09-18T03:13:46;20.30;84.70
53962;DHT22;39868;53.398;6.564;2023-09-18T03:16:16;20.30;84.70
53962;DHT22;39868;53.398;6.564;2023-09-18T03:18:45;20.30;84.70
53962;DHT22;39868;53.398;6.564;2023-09-18T03:21:12;20.30;84.80
53962;DHT22;39868;53.398;6.564;2023-09-18T03:23:39;20.30;84.80
53962;DHT22;39868;53.398;6.564;2023-09-18T03:26:07;20.30;84.80
53962;DHT22;39868;53.398;6.564;2023-09-18T03:28:34;20.30;84.80
53962;DHT22;39868;53.398;6.564;2023-09-18T03:31:01;20.30;84.80
53962;DHT22;39868;53.398;6.564;2023-09-18T03:33:28;20.40;85.00
53962;DHT22;39868;53.398;6.564;2023-09-18T03:35:56;20.40;85.00
53962;DHT22;39868;53.398;6.564;2023-09-18T03:38:29;20.40;85.00
53962;DHT22;39868;53.398;6.564;2023-09-18T03:40:59;20.40;85.00
53962;DHT22;39868;53.398;6.564;2023-09-18T03:43:26;20.40;85.10
53962;DHT22;39868;53.398;6.564;2023-09-18T03:45:54;20.40;85.10
53962;DHT22;39868;53.398;6.564;2023-09-18T03:48:22;20.50;85.20
53962;DHT22;39868;53.398;6.564;2023-09-18T03:50:49;20.50;85.20
53962;DHT22;39868;53.398;6.564;2023-09-18T03:53:16;20.50;85.20
53962;DHT22;39868;53.398;6.564;2023-09-18T03:55:45;20.50;85.20
53962;DHT22;39868;53.398;6.564;2023-09-18T03:58:12;20.50;85.20
53962;DHT22;39868;53.398;6.564;2023-09-18T04:00:40;20.50;85.30
53962;DHT22;39868;53.398;6.564;2023-09-18T04:03:08;20.60;85.30
53962;DHT22;39868;53.398;6.564;2023-09-18T04:05:36;20.60;85.40
53962;DHT22;39868;53.398;6.564;2023-09-18T04:08:04;20.60;85.40
53962;DHT22;39868;53.398;6.564;2023-09-18T04:10:31;20.60;85.40
53962;DHT22;39868;53.398;6.564;2023-09-18T04:13:00;20.70;85.40
53962;DHT22;39868;53.398;6.564;2023-09-18T04:15:27;20.70;85.50
53962;DHT22;39868;53.398;6.564;2023-09-18T04:17:57;20.70;85.50
53962;DHT22;39868;53.398;6.564;2023-09-18T04:20:24;20.70;85.40
53962;DHT22;39868;53.398;6.564;2023-09-18T04:25:38;20.70;85.40
53962;DHT22;39868;53.398;6.564;2023-09-18T04:28:06;20.70;85.40
53962;DHT22;39868;53.398;6.564;2023-09-18T04:30:33;20.70;85.40
53962;DHT22;39868;53.398;6.564;2023-09-18T04:33:00;20.80;85.50
53962;DHT22;39868;53.398;6.564;2023-09-18T04:35:29;20.70;85.50
53962;DHT22;39868;53.398;6.564;2023-09-18T04:37:58;20.80;85.60
53962;DHT22;39868;53.398;6.564;2023-09-18T04:40:26;20.80;85.60
53962;DHT22;39868;53.398;6.564;2023-09-18T04:42:54;20.80;85.60
53962;DHT22;39868;53.398;6.564;2023-09-18T04:45:21;20.80;85.60
53962;DHT22;39868;53.398;6.564;2023-09-18T04:47:48;20.80;85.60
53962;DHT22;39868;53.398;6.564;2023-09-18T04:50:16;20.80;85.60
53962;DHT22;39868;53.398;6.564;2023-09-18T04:52:45;20.80;85.60
53962;DHT22;39868;53.398;6.564;2023-09-18T04:55:15;20.80;85.60
53962;DHT22;39868;53.398;6.564;2023-09-18T04:57:42;20.80;85.60
53962;DHT22;39868;53.398;6.564;2023-09-18T05:00:10;20.80;85.60
53962;DHT22;39868;53.398;6.564;2023-09-18T05:02:44;20.80;85.60
53962;DHT22;39868;53.398;6.564;2023-09-18T05:05:12;20.80;85.70
53962;DHT22;39868;53.398;6.564;2023-09-18T05:07:41;20.80;85.70
53962;DHT22;39868;53.398;6.564;2023-09-18T05:10:09;20.80;85.70
53962;DHT22;39868;53.398;6.564;2023-09-18T05:12:39;20.90;85.80
53962;DHT22;39868;53.398;6.564;2023-09-18T05:15:08;20.90;85.80
53962;DHT22;39868;53.398;6.564;2023-09-18T05:17:43;20.90;85.80
53962;DHT22;39868;53.398;6.564;2023-09-18T05:20:11;20.90;85.80
53962;DHT22;39868;53.398;6.564;2023-09-18T05:22:41;20.90;85.80
53962;DHT22;39868;53.398;6.564;2023-09-18T05:25:09;20.90;85.80
53962;DHT22;39868;53.398;6.564;2023-09-18T05:27:37;20.90;85.80
53962;DHT22;39868;53.398;6.564;2023-09-18T05:32:40;20.90;85.80
53962;DHT22;39868;53.398;6.564;2023-09-18T05:35:08;20.90;85.80
53962;DHT22;39868;53.398;6.564;2023-09-18T05:37:38;20.90;85.90
53962;DHT22;39868;53.398;6.564;2023-09-18T05:40:09;20.90;85.90
53962;DHT22;39868;53.398;6.564;2023-09-18T05:42:37;20.90;85.90
53962;DHT22;39868;53.398;6.564;2023-09-18T05:45:05;21.00;86.00
53962;DHT22;39868;53.398;6.564;2023-09-18T05:47:32;21.00;86.00
53962;DHT22;39868;53.398;6.564;2023-09-18T05:50:00;21.00;86.00
53962;DHT22;39868;53.398;6.564;2023-09-18T05:52:27;21.00;86.00
53962;DHT22;39868;53.398;6.564;2023-09-18T05:54:54;21.00;86.10
53962;DHT22;39868;53.398;6.564;2023-09-18T05:57:22;21.00;86.00
53962;DHT22;39868;53.398;6.564;2023-09-18T05:59:49;21.00;86.10
53962;DHT22;39868;53.398;6.564;2023-09-18T06:02:17;21.00;86.10
53962;DHT22;39868;53.398;6.564;2023-09-18T06:04:44;21.00;86.00
53962;DHT22;39868;53.398;6.564;2023-09-18T06:07:11;21.10;86.10
53962;DHT22;39868;53.398;6.564;2023-09-18T06:09:40;21.10;86.10
53962;DHT22;39868;53.398;6.564;2023-09-18T06:12:07;21.10;86.10
53962;DHT22;39868;53.398;6.564;2023-09-18T06:14:36;21.10;86.10
53962;DHT22;39868;53.398;6.564;2023-09-18T06:17:05;21.10;86.20
53962;DHT22;39868;53.398;6.564;2023-09-18T06:19:33;21.10;86.20
53962;DHT22;39868;53.398;6.564;2023-09-18T06:22:01;21.20;86.20
53962;DHT22;39868;53.398;6.564;2023-09-18T06:24:28;21.20;86.20
53962;DHT22;39868;53.398;6.564;2023-09-18T06:26:56;21.20;86.20
53962;DHT22;39868;53.398;6.564;2023-09-18T06:29:23;21.20;86.20
53962;DHT22;39868;53.398;6.564;2023-09-18T06:31:50;21.30;86.20
53962;DHT22;39868;53.398;6.564;2023-09-18T06:34:18;21.30;86.20
53962;DHT22;39868;53.398;6.564;2023-09-18T06:36:48;21.30;86.20
53962;DHT22;39868;53.398;6.564;2023-09-18T06:39:16;21.30;86.20
53962;DHT22;39868;53.398;6.564;2023-09-18T06:41:44;21.30;86.20
53962;DHT22;39868;53.398;6.564;2023-09-18T06:44:12;21.40;86.30
53962;DHT22;39868;53.398;6.564;2023-09-18T06:46:39;21.40;86.30
53962;DHT22;39868;53.398;6.564;2023-09-18T06:49:07;21.40;86.20
53962;DHT22;39868;53.398;6.564;2023-09-18T06:51:35;21.50;86.30
53962;DHT22;39868;53.398;6.564;2023-09-18T06:54:09;21.40;86.20
53962;DHT22;39868;53.398;6.564;2023-09-18T06:56:37;21.50;86.20
53962;DHT22;39868;53.398;6.564;2023-09-18T06:59:04;21.50;86.20
53962;DHT22;39868;53.398;6.564;2023-09-18T07:01:31;21.50;86.20
53962;DHT22;39868;53.398;6.564;2023-09-18T07:03:59;21.60;86.20
53962;DHT22;39868;53.398;6.564;2023-09-18T07:06:27;21.50;86.10
53962;DHT22;39868;53.398;6.564;2023-09-18T07:08:54;21.60;86.20
53962;DHT22;39868;53.398;6.564;2023-09-18T07:11:22;21.60;86.20
53962;DHT22;39868;53.398;6.564;2023-09-18T07:13:51;21.60;86.20
53962;DHT22;39868;53.398;6.564;2023-09-18T07:16:19;21.60;86.20
53962;DHT22;39868;53.398;6.564;2023-09-18T07:18:46;21.70;86.30
53962;DHT22;39868;53.398;6.564;2023-09-18T07:21:13;21.70;86.30
53962;DHT22;39868;53.398;6.564;2023-09-18T07:23:41;21.70;86.20
53962;DHT22;39868;53.398;6.564;2023-09-18T07:26:08;21.70;86.20
53962;DHT22;39868;53.398;6.564;2023-09-18T07:28:36;21.80;86.30
53962;DHT22;39868;53.398;6.564;2023-09-18T07:31:08;21.80;86.30
53962;DHT22;39868;53.398;6.564;2023-09-18T07:33:36;21.80;86.20
53962;DHT22;39868;53.398;6.564;2023-09-18T07:36:04;21.80;86.20
53962;DHT22;39868;53.398;6.564;2023-09-18T07:38:31;21.80;86.20
53962;DHT22;39868;53.398;6.564;2023-09-18T07:40:58;21.80;86.20
53962;DHT22;39868;53.398;6.564;2023-09-18T07:43:26;21.80;86.20
53962;DHT22;39868;53.398;6.564;2023-09-18T07:45:53;21.80;86.20
53962;DHT22;39868;53.398;6.564;2023-09-18T07:48:22;21.90;86.20
53962;DHT22;39868;53.398;6.564;2023-09-18T07:50:49;21.90;86.20
53962;DHT22;39868;53.398;6.564;2023-09-18T07:53:18;21.80;86.10
53962;DHT22;39868;53.398;6.564;2023-09-18T07:55:47;21.80;86.10
53962;DHT22;39868;53.398;6.564;2023-09-18T07:58:15;21.80;86.10
53962;DHT22;39868;53.398;6.564;2023-09-18T08:00:43;21.80;86.10
53962;DHT22;39868;53.398;6.564;2023-09-18T08:03:10;21.80;86.10
53962;DHT22;39868;53.398;6.564;2023-09-18T08:05:38;21.80;86.10
53962;DHT22;39868;53.398;6.564;2023-09-18T08:08:05;21.80;86.10
53962;DHT22;39868;53.398;6.564;2023-09-18T08:10:36;21.80;86.20
53962;DHT22;39868;53.398;6.564;2023-09-18T08:13:03;21.80;86.20
53962;DHT22;39868;53.398;6.564;2023-09-18T08:15:30;21.80;86.20
53962;DHT22;39868;53.398;6.564;2023-09-18T08:17:57;21.80;86.20
53962;DHT22;39868;53.398;6.564;2023-09-18T08:20:26;21.80;86.30
53962;DHT22;39868;53.398;6.564;2023-09-18T08:22:53;21.80;86.30
53962;DHT22;39868;53.398;6.564;2023-09-18T08:25:24;21.80;87.00
53962;DHT22;39868;53.398;6.564;2023-09-18T08:27:54;21.80;87.00
53962;DHT22;39868;53.398;6.564;2023-09-18T08:30:21;21.80;86.50
53962;DHT22;39868;53.398;6.564;2023-09-18T08:32:50;21.80;86.50
53962;DHT22;39868;53.398;6.564;2023-09-18T08:35:17;21.90;86.60
53962;DHT22;39868;53.398;6.564;2023-09-18T08:37:45;21.80;86.60
53962;DHT22;39868;53.398;6.564;2023-09-18T08:40:13;21.80;86.60
53962;DHT22;39868;53.398;6.564;2023-09-18T08:42:44;21.90;86.60
53962;DHT22;39868;53.398;6.564;2023-09-18T08:45:14;21.90;86.70
53962;DHT22;39868;53.398;6.564;2023-09-18T08:47:42;21.90;86.70
53962;DHT22;39868;53.398;6.564;2023-09-18T08:50:10;21.90;86.70
53962;DHT22;39868;53.398;6.564;2023-09-18T08:52:38;21.90;86.70
53962;DHT22;39868;53.398;6.564;2023-09-18T08:55:06;21.90;86.70
53962;DHT22;39868;53.398;6.564;2023-09-18T08:57:36;21.90;86.70
53962;DHT22;39868;53.398;6.564;2023-09-18T09:00:05;21.90;86.70
53962;DHT22;39868;53.398;6.564;2023-09-18T09:02:34;21.90;86.70
53962;DHT22;39868;53.398;6.564;2023-09-18T09:05:02;22.00;86.80
53962;DHT22;39868;53.398;6.564;2023-09-18T09:07:30;22.00;86.80
53962;DHT22;39868;53.398;6.564;2023-09-18T09:09:58;22.00;86.80
53962;DHT22;39868;53.398;6.564;2023-09-18T09:15:12;22.00;86.90
53962;DHT22;39868;53.398;6.564;2023-09-18T09:17:40;22.10;86.90
53962;DHT22;39868;53.398;6.564;2023-09-18T09:20:11;22.10;87.00
53962;DHT22;39868;53.398;6.564;2023-09-18T09:22:39;22.10;87.00
53962;DHT22;39868;53.398;6.564;2023-09-18T09:25:21;22.20;87.10
53962;DHT22;39868;53.398;6.564;2023-09-18T09:27:48;22.20;87.00
53962;DHT22;39868;53.398;6.564;2023-09-18T09:30:19;22.20;87.10
53962;DHT22;39868;53.398;6.564;2023-09-18T09:32:48;22.20;87.00
53962;DHT22;39868;53.398;6.564;2023-09-18T09:35:21;22.20;87.00
53962;DHT22;39868;53.398;6.564;2023-09-18T09:37:49;22.30;87.10
53962;DHT22;39868;53.398;6.564;2023-09-18T09:40:19;22.30;87.10
53962;DHT22;39868;53.398;6.564;2023-09-18T09:42:46;22.30;87.10
53962;DHT22;39868;53.398;6.564;2023-09-18T09:45:14;22.30;87.20
53962;DHT22;39868;53.398;6.564;2023-09-18T09:47:44;22.40;87.20
53962;DHT22;39868;53.398;6.564;2023-09-18T09:50:13;22.40;87.20
53962;DHT22;39868;53.398;6.564;2023-09-18T09:52:52;22.40;87.20
53962;DHT22;39868;53.398;6.564;2023-09-18T09:55:21;22.50;87.20
53962;DHT22;39868;53.398;6.564;2023-09-18T09:57:56;22.50;87.30
53962;DHT22;39868;53.398;6.564;2023-09-18T10:00:31;22.50;87.30
53962;DHT22;39868;53.398;6.564;2023-09-18T10:03:04;22.50;87.30
53962;DHT22;39868;53.398;6.564;2023-09-18T10:05:32;22.60;87.40
53962;DHT22;39868;53.398;6.564;2023-09-18T10:08:06;22.60;87.40
53962;DHT22;39868;53.398;6.564;2023-09-18T10:10:43;22.60;87.40
53962;DHT22;39868;53.398;6.564;2023-09-18T10:13:12;22.60;87.40
53962;DHT22;39868;53.398;6.564;2023-09-18T10:15:42;22.60;87.40
53962;DHT22;39868;53.398;6.564;2023-09-18T10:18:17;22.70;87.50
53962;DHT22;39868;53.398;6.564;2023-09-18T10:20:47;22.70;87.40
53962;DHT22;39868;53.398;6.564;2023-09-18T10:23:21;22.70;87.50
53962;DHT22;39868;53.398;6.564;2023-09-18T10:25:53;22.80;87.50
53962;DHT22;39868;53.398;6.564;2023-09-18T10:28:23;22.90;87.60
53962;DHT22;39868;53.398;6.564;2023-09-18T10:30:54;22.90;87.70
53962;DHT22;39868;53.398;6.564;2023-09-18T10:33:23;22.90;87.70
53962;DHT22;39868;53.398;6.564;2023-09-18T10:35:51;23.00;87.80
53962;DHT22;39868;53.398;6.564;2023-09-18T10:38:19;23.10;87.80
53962;DHT22;39868;53.398;6.564;2023-09-18T10:40:49;23.10;87.80
53962;DHT22;39868;53.398;6.564;2023-09-18T10:43:18;23.20;87.90
53962;DHT22;39868;53.398;6.564;2023-09-18T10:45:45;23.20;87.90
53962;DHT22;39868;53.398;6.564;2023-09-18T10:48:13;23.20;87.80
53962;DHT22;39868;53.398;6.564;2023-09-18T10:50:41;23.30;88.00
53962;DHT22;39868;53.398;6.564;2023-09-18T10:53:09;23.30;87.80
53962;DHT22;39868;53.398;6.564;2023-09-18T10:55:36;23.40;87.80
53962;DHT22;39868;53.398;6.564;2023-09-18T10:58:05;23.50;88.40
53962;DHT22;39868;53.398;6.564;2023-09-18T11:00:33;23.50;87.90
53962;DHT22;39868;53.398;6.564;2023-09-18T11:03:13;23.60;88.00
53962;DHT22;39868;53.398;6.564;2023-09-18T11:05:41;23.60;88.00
53962;DHT22;39868;53.398;6.564;2023-09-18T11:13:36;23.80;87.80
53962;DHT22;39868;53.398;6.564;2023-09-18T11:16:13;23.90;87.80
53962;DHT22;39868;53.398;6.564;2023-09-18T11:18:40;23.90;87.70
53962;DHT22;39868;53.398;6.564;2023-09-18T11:21:08;24.00;87.60
53962;DHT22;39868;53.398;6.564;2023-09-18T11:23:36;24.10;87.50
53962;DHT22;39868;53.398;6.564;2023-09-18T11:26:06;24.10;87.30
53962;DHT22;39868;53.398;6.564;2023-09-18T11:28:34;24.10;87.00
53962;DHT22;39868;53.398;6.564;2023-09-18T11:31:01;24.20;87.00
53962;DHT22;39868;53.398;6.564;2023-09-18T11:36:04;24.30;87.00
53962;DHT22;39868;53.398;6.564;2023-09-18T11:38:35;24.40;86.60
53962;DHT22;39868;53.398;6.564;2023-09-18T11:41:22;24.50;86.50
53962;DHT22;39868;53.398;6.564;2023-09-18T11:43:50;24.60;86.50
53962;DHT22;39868;53.398;6.564;2023-09-18T11:46:18;24.60;86.30
53962;DHT22;39868;53.398;6.564;2023-09-18T11:48:47;24.70;86.00
53962;DHT22;39868;53.398;6.564;2023-09-18T11:51:14;24.70;85.90
53962;DHT22;39868;53.398;6.564;2023-09-18T11:53:41;24.70;85.70
53962;DHT22;39868;53.398;6.564;2023-09-18T11:56:11;24.80;85.60
53962;DHT22;39868;53.398;6.564;2023-09-18T11:58:50;24.90;85.30
53962;DHT22;39868;53.398;6.564;2023-09-18T12:01:18;24.90;85.00
53962;DHT22;39868;53.398;6.564;2023-09-18T12:03:45;25.00;84.80
53962;DHT22;39868;53.398;6.564;2023-09-18T12:06:14;25.00;84.40
53962;DHT22;39868;53.398;6.564;2023-09-18T12:08:42;25.10;84.10
53962;DHT22;39868;53.398;6.564;2023-09-18T12:11:10;25.10;83.70
53962;DHT22;39868;53.398;6.564;2023-09-18T12:13:51;25.10;83.60
53962;DHT22;39868;53.398;6.564;2023-09-18T12:16:19;25.20;83.20
53962;DHT22;39868;53.398;6.564;2023-09-18T12:18:47;25.20;83.00
53962;DHT22;39868;53.398;6.564;2023-09-18T12:21:17;25.30;83.20
53962;DHT22;39868;53.398;6.564;2023-09-18T12:23:45;25.30;83.20
53962;DHT22;39868;53.398;6.564;2023-09-18T12:26:14;25.30;83.10
53962;DHT22;39868;53.398;6.564;2023-09-18T12:28:42;25.40;83.00
53962;DHT22;39868;53.398;6.564;2023-09-18T12:31:10;25.50;83.20
53962;DHT22;39868;53.398;6.564;2023-09-18T12:33:38;25.50;83.00
53962;DHT22;39868;53.398;6.564;2023-09-18T12:36:07;25.50;82.60
53962;DHT22;39868;53.398;6.564;2023-09-18T12:38:35;25.50;82.50
53962;DHT22;39868;53.398;6.564;2023-09-18T12:41:04;25.40;82.30
53962;DHT22;39868;53.398;6.564;2023-09-18T12:43:36;25.40;81.90
53962;DHT22;39868;53.398;6.564;2023-09-18T12:46:04;25.40;81.60
53962;DHT22;39868;53.398;6.564;2023-09-18T12:48:32;25.40;81.30
53962;DHT22;39868;53.398;6.564;2023-09-18T12:51:04;25.30;81.20
53962;DHT22;39868;53.398;6.564;2023-09-18T12:53:32;25.30;81.40
53962;DHT22;39868;53.398;6.564;2023-09-18T12:58:32;25.10;81.00
53962;DHT22;39868;53.398;6.564;2023-09-18T13:01:08;25.10;81.30
53962;DHT22;39868;53.398;6.564;2023-09-18T13:03:43;25.10;81.30
53962;DHT22;39868;53.398;6.564;2023-09-18T13:06:12;25.10;81.20
53962;DHT22;39868;53.398;6.564;2023-09-18T13:08:39;25.10;81.30
53962;DHT22;39868;53.398;6.564;2023-09-18T13:11:07;25.10;81.40
53962;DHT22;39868;53.398;6.564;2023-09-18T13:13:34;25.10;81.30
53962;DHT22;39868;53.398;6.564;2023-09-18T13:16:04;25.20;81.40
53962;DHT22;39868;53.398;6.564;2023-09-18T13:18:31;25.20;81.10
53962;DHT22;39868;53.398;6.564;2023-09-18T13:21:00;25.20;81.00
53962;DHT22;39868;53.398;6.564;2023-09-18T13:23:27;25.20;80.70
53962;DHT22;39868;53.398;6.564;2023-09-18T13:26:00;25.20;80.50
53962;DHT22;39868;53.398;6.564;2023-09-18T13:28:28;25.20;80.60
53962;DHT22;39868;53.398;6.564;2023-09-18T13:30:57;25.10;80.60
53962;DHT22;39868;53.398;6.564;2023-09-18T13:33:26;25.10;80.30
53962;DHT22;39868;53.398;6.564;2023-09-18T13:35:54;25.10;80.60
53962;DHT22;39868;53.398;6.564;2023-09-18T13:38:23;25.10;80.60
53962;DHT22;39868;53.398;6.564;2023-09-18T13:40:53;25.10;80.60
53962;DHT22;39868;53.398;6.564;2023-09-18T13:43:21;25.10;80.90
53962;DHT22;39868;53.398;6.564;2023-09-18T13:45:50;25.10;80.80
53962;DHT22;39868;53.398;6.564;2023-09-18T13:48:20;25.20;80.90
53962;DHT22;39868;53.398;6.564;2023-09-18T13:50:49;25.20;80.70
53962;DHT22;39868;53.398;6.564;2023-09-18T13:53:18;25.30;80.60
53962;DHT22;39868;53.398;6.564;2023-09-18T13:55:45;25.30;80.20
53962;DHT22;39868;53.398;6.564;2023-09-18T13:58:12;25.40;80.20
53962;DHT22;39868;53.398;6.564;2023-09-18T14:00:40;25.40;80.30
53962;DHT22;39868;53.398;6.564;2023-09-18T14:03:09;25.40;80.10
53962;DHT22;39868;53.398;6.564;2023-09-18T14:05:42;25.50;80.00
53962;DHT22;39868;53.398;6.564;2023-09-18T14:08:09;25.50;79.90
53962;DHT22;39868;53.398;6.564;2023-09-18T14:10:37;25.60;79.70
53962;DHT22;39868;53.398;6.564;2023-09-18T14:13:06;25.60;78.60
53962;DHT22;39868;53.398;6.564;2023-09-18T14:15:34;25.70;78.20
53962;DHT22;39868;53.398;6.564;2023-09-18T14:18:01;25.70;78.30
53962;DHT22;39868;53.398;6.564;2023-09-18T14:20:30;25.70;78.20
53962;DHT22;39868;53.398;6.564;2023-09-18T14:22:57;25.80;78.40
53962;DHT22;39868;53.398;6.564;2023-09-18T14:25:25;25.80;78.60
53962;DHT22;39868;53.398;6.564;2023-09-18T14:27:52;25.90;78.60
53962;DHT22;39868;53.398;6.564;2023-09-18T14:30:20;25.90;78.50
53962;DHT22;39868;53.398;6.564;2023-09-18T14:32:48;25.90;77.90
53962;DHT22;39868;53.398;6.564;2023-09-18T14:35:17;26.00;77.60
53962;DHT22;39868;53.398;6.564;2023-09-18T14:37:44;26.00;78.00
53962;DHT22;39868;53.398;6.564;2023-09-18T14:40:11;26.00;77.50
53962;DHT22;39868;53.398;6.564;2023-09-18T14:42:39;26.00;76.40
53962;DHT22;39868;53.398;6.564;2023-09-18T14:45:07;26.00;76.50
53962;DHT22;39868;53.398;6.564;2023-09-18T14:47:34;26.00;76.50
53962;DHT22;39868;53.398;6.564;2023-09-18T14:50:02;26.00;76.60
53962;DHT22;39868;53.398;6.564;2023-09-18T14:52:29;25.90;76.50
53962;DHT22;39868;53.398;6.564;2023-09-18T14:54:56;25.90;76.60
53962;DHT22;39868;53.398;6.564;2023-09-18T14:57:24;25.90;76.70
53962;DHT22;39868;53.398;6.564;2023-09-18T14:59:51;25.90;76.50
53962;DHT22;39868;53.398;6.564;2023-09-18T15:02:18;25.90;76.70
53962;DHT22;39868;53.398;6.564;2023-09-18T15:04:46;25.90;76.30
53962;DHT22;39868;53.398;6.564;2023-09-18T15:07:14;26.00;76.70
53962;DHT22;39868;53.398;6.564;2023-09-18T15:09:41;26.00;77.00
53962;DHT22;39868;53.398;6.564;2023-09-18T15:12:09;26.00;76.90
53962;DHT22;39868;53.398;6.564;2023-09-18T15:14:38;26.10;76.70
53962;DHT22;39868;53.398;6.564;2023-09-18T15:17:05;26.10;76.70
53962;DHT22;39868;53.398;6.564;2023-09-18T15:19:35;26.20;76.70
53962;DHT22;39868;53.398;6.564;2023-09-18T15:22:02;26.20;76.40
53962;DHT22;39868;53.398;6.564;2023-09-18T15:24:30;26.20;76.30
53962;DHT22;39868;53.398;6.564;2023-09-18T15:26:57;26.30;76.00
53962;DHT22;39868;53.398;6.564;2023-09-18T15:29:25;26.30;76.00
53962;DHT22;39868;53.398;6.564;2023-09-18T15:32:01;26.30;75.30
53962;DHT22;39868;53.398;6.564;2023-09-18T15:34:32;26.30;75.30
53962;DHT22;39868;53.398;6.564;2023-09-18T15:36:59;26.40;75.20
53962;DHT22;39868;53.398;6.564;2023-09-18T15:39:31;26.30;75.40
53962;DHT22;39868;53.398;6.564;2023-09-18T15:41:59;26.30;75.60
53962;DHT22;39868;53.398;6.564;2023-09-18T15:44:27;26.40;75.60
53962;DHT22;39868;53.398;6.564;2023-09-18T15:46:54;26.40;75.70
53962;DHT22;39868;53.398;6.564;2023-09-18T15:49:21;26.30;75.60
53962;DHT22;39868;53.398;6.564;2023-09-18T15:51:49;26.30;75.60
53962;DHT22;39868;53.398;6.564;2023-09-18T15:54:16;26.30;75.60
53962;DHT22;39868;53.398;6.564;2023-09-18T15:56:43;26.30;75.60